sensor_id;sensor_type;location;lat;lon;timestamp;P1;durP1;ratioP1;P2;durP2;ratioP2
61383;SDS011;63511;49.346;8.798;2023-02-18T00:00:51;5.85;;;4.15;;
61383;SDS011;63511;49.346;8.798;2023-02-18T00:03:18;8.10;;;4.68;;
61383;SDS011;63511;49.346;8.798;2023-02-18T00:05:44;5.78;;;4.47;;
61383;SDS011;63511;49.346;8.798;2023-02-18T00:08:11;7.85;;;4.35;;
61383;SDS011;63511;49.346;8.798;2023-02-18T00:10:39;6.05;;;4.45;;
61383;SDS011;63511;49.346;8.798;2023-02-18T00:13:07;7.13;;;4.65;;
61383;SDS011;63511;49.346;8.798;2023-02-18T00:15:34;17.33;;;4.28;;
61383;SDS011;63511;49.346;8.798;2023-02-18T00:18:01;5.82;;;4.13;;
61383;SDS011;63511;49.346;8.798;2023-02-18T00:20:27;5.03;;;4.35;;
61383;SDS011;63511;49.346;8.798;2023-02-18T00:22:54;6.45;;;4.80;;
61383;SDS011;63511;49.346;8.798;2023-02-18T00:25:20;6.10;;;4.07;;
61383;SDS011;63511;49.346;8.798;2023-02-18T00:27:47;8.88;;;5.15;;
61383;SDS011;63511;49.346;8.798;2023-02-18T00:30:15;5.97;;;4.68;;
61383;SDS011;63511;49.346;8.798;2023-02-18T00:32:41;6.38;;;4.13;;
61383;SDS011;63511;49.346;8.798;2023-02-18T00:35:08;7.88;;;4.75;;
61383;SDS011;63511;49.346;8.798;2023-02-18T00:37:35;5.15;;;4.15;;
61383;SDS011;63511;49.346;8.798;2023-02-18T00:40:01;8.90;;;4.93;;
61383;SDS011;63511;49.346;8.798;2023-02-18T00:42:28;5.32;;;4.30;;
61383;SDS011;63511;49.346;8.798;2023-02-18T00:44:54;7.60;;;4.95;;
61383;SDS011;63511;49.346;8.798;2023-02-18T00:47:22;5.32;;;4.32;;
61383;SDS011;63511;49.346;8.798;2023-02-18T00:49:48;8.35;;;4.85;;
61383;SDS011;63511;49.346;8.798;2023-02-18T00:52:15;5.70;;;4.53;;
61383;SDS011;63511;49.346;8.798;2023-02-18T00:54:41;9.35;;;5.15;;
61383;SDS011;63511;49.346;8.798;2023-02-18T00:57:08;8.40;;;4.85;;
61383;SDS011;63511;49.346;8.798;2023-02-18T00:59:34;6.15;;;3.90;;
61383;SDS011;63511;49.346;8.798;2023-02-18T01:02:01;8.38;;;4.15;;
61383;SDS011;63511;49.346;8.798;2023-02-18T01:04:29;9.43;;;4.60;;
61383;SDS011;63511;49.346;8.798;2023-02-18T01:06:55;6.40;;;4.25;;
61383;SDS011;63511;49.346;8.798;2023-02-18T01:09:22;8.80;;;5.43;;
61383;SDS011;63511;49.346;8.798;2023-02-18T01:11:49;7.88;;;4.53;;
61383;SDS011;63511;49.346;8.798;2023-02-18T01:14:16;4.85;;;3.83;;
61383;SDS011;63511;49.346;8.798;2023-02-18T01:16:42;7.57;;;5.07;;
61383;SDS011;63511;49.346;8.798;2023-02-18T01:19:09;6.28;;;5.07;;
61383;SDS011;63511;49.346;8.798;2023-02-18T01:21:37;6.97;;;4.75;;
61383;SDS011;63511;49.346;8.798;2023-02-18T01:24:04;5.25;;;4.43;;
61383;SDS011;63511;49.346;8.798;2023-02-18T01:26:31;6.00;;;3.95;;
61383;SDS011;63511;49.346;8.798;2023-02-18T01:28:57;5.40;;;4.22;;
61383;SDS011;63511;49.346;8.798;2023-02-18T01:31:24;6.80;;;3.72;;
61383;SDS011;63511;49.346;8.798;2023-02-18T01:33:50;5.18;;;4.13;;
61383;SDS011;63511;49.346;8.798;2023-02-18T01:36:17;6.55;;;3.95;;
61383;SDS011;63511;49.346;8.798;2023-02-18T01:38:45;5.38;;;4.05;;
61383;SDS011;63511;49.346;8.798;2023-02-18T01:41:11;4.85;;;3.88;;
61383;SDS011;63511;49.346;8.798;2023-02-18T01:43:38;10.00;;;4.50;;
61383;SDS011;63511;49.346;8.798;2023-02-18T01:46:07;5.78;;;4.78;;
61383;SDS011;63511;49.346;8.798;2023-02-18T01:48:39;6.53;;;4.63;;
61383;SDS011;63511;49.346;8.798;2023-02-18T01:51:08;7.20;;;4.93;;
61383;SDS011;63511;49.346;8.798;2023-02-18T01:53:44;5.80;;;4.43;;
61383;SDS011;63511;49.346;8.798;2023-02-18T01:56:18;6.55;;;4.45;;
61383;SDS011;63511;49.346;8.798;2023-02-18T01:58:48;8.07;;;4.72;;
61383;SDS011;63511;49.346;8.798;2023-02-18T02:01:16;5.13;;;4.60;;
61383;SDS011;63511;49.346;8.798;2023-02-18T02:03:42;9.35;;;5.05;;
61383;SDS011;63511;49.346;8.798;2023-02-18T02:06:11;5.68;;;4.40;;
61383;SDS011;63511;49.346;8.798;2023-02-18T02:08:42;8.32;;;5.07;;
61383;SDS011;63511;49.346;8.798;2023-02-18T02:11:16;7.55;;;4.75;;
61383;SDS011;63511;49.346;8.798;2023-02-18T02:13:52;7.65;;;5.35;;
61383;SDS011;63511;49.346;8.798;2023-02-18T02:16:29;6.28;;;5.30;;
61383;SDS011;63511;49.346;8.798;2023-02-18T02:19:04;7.32;;;5.32;;
61383;SDS011;63511;49.346;8.798;2023-02-18T02:21:58;8.75;;;5.15;;
61383;SDS011;63511;49.346;8.798;2023-02-18T02:27:48;6.82;;;4.47;;
61383;SDS011;63511;49.346;8.798;2023-02-18T02:30:41;6.20;;;4.07;;
61383;SDS011;63511;49.346;8.798;2023-02-18T02:33:33;8.00;;;4.45;;
61383;SDS011;63511;49.346;8.798;2023-02-18T02:36:13;5.88;;;4.43;;
61383;SDS011;63511;49.346;8.798;2023-02-18T02:38:47;6.63;;;4.90;;
61383;SDS011;63511;49.346;8.798;2023-02-18T02:41:27;6.72;;;4.82;;
61383;SDS011;63511;49.346;8.798;2023-02-18T02:44:18;8.40;;;4.75;;
61383;SDS011;63511;49.346;8.798;2023-02-18T02:46:47;5.20;;;4.10;;
61383;SDS011;63511;49.346;8.798;2023-02-18T02:49:20;6.50;;;4.63;;
61383;SDS011;63511;49.346;8.798;2023-02-18T02:51:59;6.30;;;4.78;;
61383;SDS011;63511;49.346;8.798;2023-02-18T02:54:30;8.50;;;4.47;;
61383;SDS011;63511;49.346;8.798;2023-02-18T02:57:03;5.40;;;4.75;;
61383;SDS011;63511;49.346;8.798;2023-02-18T02:59:31;7.93;;;5.13;;
61383;SDS011;63511;49.346;8.798;2023-02-18T03:02:05;11.38;;;5.25;;
61383;SDS011;63511;49.346;8.798;2023-02-18T03:04:47;7.10;;;5.20;;
61383;SDS011;63511;49.346;8.798;2023-02-18T03:07:36;7.57;;;5.82;;
61383;SDS011;63511;49.346;8.798;2023-02-18T03:10:27;6.70;;;4.82;;
61383;SDS011;63511;49.346;8.798;2023-02-18T03:13:03;8.02;;;5.45;;
61383;SDS011;63511;49.346;8.798;2023-02-18T03:15:39;7.00;;;5.25;;
61383;SDS011;63511;49.346;8.798;2023-02-18T03:18:14;8.32;;;5.43;;
61383;SDS011;63511;49.346;8.798;2023-02-18T03:20:50;7.10;;;4.50;;
61383;SDS011;63511;49.346;8.798;2023-02-18T03:23:22;6.28;;;5.22;;
61383;SDS011;63511;49.346;8.798;2023-02-18T03:25:52;6.82;;;6.05;;
61383;SDS011;63511;49.346;8.798;2023-02-18T03:28:20;8.75;;;5.50;;
61383;SDS011;63511;49.346;8.798;2023-02-18T03:30:51;5.80;;;4.95;;
61383;SDS011;63511;49.346;8.798;2023-02-18T03:33:22;9.20;;;5.43;;
61383;SDS011;63511;49.346;8.798;2023-02-18T03:35:52;8.10;;;5.78;;
61383;SDS011;63511;49.346;8.798;2023-02-18T03:38:22;7.70;;;5.60;;
61383;SDS011;63511;49.346;8.798;2023-02-18T03:40:51;6.70;;;5.10;;
61383;SDS011;63511;49.346;8.798;2023-02-18T03:43:17;8.80;;;5.78;;
61383;SDS011;63511;49.346;8.798;2023-02-18T03:45:44;10.05;;;6.50;;
61383;SDS011;63511;49.346;8.798;2023-02-18T03:48:10;7.68;;;6.05;;
61383;SDS011;63511;49.346;8.798;2023-02-18T03:50:37;11.00;;;6.07;;
61383;SDS011;63511;49.346;8.798;2023-02-18T03:53:03;11.48;;;6.68;;
61383;SDS011;63511;49.346;8.798;2023-02-18T03:55:31;6.45;;;5.68;;
61383;SDS011;63511;49.346;8.798;2023-02-18T03:57:58;7.80;;;5.78;;
61383;SDS011;63511;49.346;8.798;2023-02-18T04:00:24;8.85;;;5.65;;
61383;SDS011;63511;49.346;8.798;2023-02-18T04:02:51;9.18;;;6.28;;
61383;SDS011;63511;49.346;8.798;2023-02-18T04:05:17;10.70;;;6.90;;
61383;SDS011;63511;49.346;8.798;2023-02-18T04:07:44;8.05;;;6.43;;
61383;SDS011;63511;49.346;8.798;2023-02-18T04:10:10;11.07;;;6.38;;
61383;SDS011;63511;49.346;8.798;2023-02-18T04:12:38;9.32;;;6.22;;
61383;SDS011;63511;49.346;8.798;2023-02-18T04:15:05;6.18;;;5.22;;
61383;SDS011;63511;49.346;8.798;2023-02-18T04:17:32;10.15;;;6.20;;
61383;SDS011;63511;49.346;8.798;2023-02-18T04:19:59;8.10;;;6.18;;
61383;SDS011;63511;49.346;8.798;2023-02-18T04:22:26;7.10;;;5.90;;
61383;SDS011;63511;49.346;8.798;2023-02-18T04:24:52;8.85;;;6.28;;
61383;SDS011;63511;49.346;8.798;2023-02-18T04:27:19;8.55;;;6.57;;
61383;SDS011;63511;49.346;8.798;2023-02-18T04:29:46;9.48;;;7.40;;
61383;SDS011;63511;49.346;8.798;2023-02-18T04:32:13;10.05;;;6.55;;
61383;SDS011;63511;49.346;8.798;2023-02-18T04:34:39;8.48;;;6.07;;
61383;SDS011;63511;49.346;8.798;2023-02-18T04:37:06;14.00;;;6.85;;
61383;SDS011;63511;49.346;8.798;2023-02-18T04:39:32;8.48;;;5.90;;
61383;SDS011;63511;49.346;8.798;2023-02-18T04:41:59;10.68;;;6.18;;
61383;SDS011;63511;49.346;8.798;2023-02-18T04:44:25;8.00;;;6.53;;
61383;SDS011;63511;49.346;8.798;2023-02-18T04:46:53;8.07;;;6.88;;
61383;SDS011;63511;49.346;8.798;2023-02-18T04:49:20;11.15;;;6.80;;
61383;SDS011;63511;49.346;8.798;2023-02-18T04:51:46;11.00;;;7.70;;
61383;SDS011;63511;49.346;8.798;2023-02-18T04:54:13;7.70;;;6.32;;
61383;SDS011;63511;49.346;8.798;2023-02-18T04:56:39;8.98;;;6.57;;
61383;SDS011;63511;49.346;8.798;2023-02-18T04:59:06;8.23;;;6.82;;
61383;SDS011;63511;49.346;8.798;2023-02-18T05:01:32;11.52;;;7.57;;
61383;SDS011;63511;49.346;8.798;2023-02-18T05:04:00;8.55;;;6.65;;
61383;SDS011;63511;49.346;8.798;2023-02-18T05:06:27;8.18;;;6.68;;
61383;SDS011;63511;49.346;8.798;2023-02-18T05:08:53;13.82;;;6.95;;
61383;SDS011;63511;49.346;8.798;2023-02-18T05:11:20;8.45;;;6.30;;
61383;SDS011;63511;49.346;8.798;2023-02-18T05:13:46;9.30;;;5.78;;
61383;SDS011;63511;49.346;8.798;2023-02-18T05:16:13;10.40;;;7.07;;
61383;SDS011;63511;49.346;8.798;2023-02-18T05:18:39;13.38;;;6.07;;
61383;SDS011;63511;49.346;8.798;2023-02-18T05:21:07;10.10;;;6.47;;
61383;SDS011;63511;49.346;8.798;2023-02-18T05:23:35;10.85;;;7.18;;
61383;SDS011;63511;49.346;8.798;2023-02-18T05:26:02;7.85;;;6.57;;
61383;SDS011;63511;49.346;8.798;2023-02-18T05:28:29;10.10;;;6.55;;
61383;SDS011;63511;49.346;8.798;2023-02-18T05:30:55;9.80;;;6.53;;
61383;SDS011;63511;49.346;8.798;2023-02-18T05:33:22;9.98;;;6.72;;
61383;SDS011;63511;49.346;8.798;2023-02-18T05:35:49;9.88;;;7.82;;
61383;SDS011;63511;49.346;8.798;2023-02-18T05:38:17;11.00;;;6.78;;
61383;SDS011;63511;49.346;8.798;2023-02-18T05:40:43;10.63;;;7.03;;
61383;SDS011;63511;49.346;8.798;2023-02-18T05:43:10;8.00;;;6.57;;
61383;SDS011;63511;49.346;8.798;2023-02-18T05:45:37;9.23;;;6.82;;
61383;SDS011;63511;49.346;8.798;2023-02-18T05:48:03;8.57;;;6.65;;
61383;SDS011;63511;49.346;8.798;2023-02-18T05:50:30;9.45;;;7.07;;
61383;SDS011;63511;49.346;8.798;2023-02-18T05:52:57;8.32;;;6.07;;
61383;SDS011;63511;49.346;8.798;2023-02-18T05:55:24;9.90;;;6.45;;
61383;SDS011;63511;49.346;8.798;2023-02-18T05:57:51;11.23;;;6.65;;
61383;SDS011;63511;49.346;8.798;2023-02-18T06:00:19;9.73;;;6.57;;
61383;SDS011;63511;49.346;8.798;2023-02-18T06:02:46;10.13;;;6.78;;
61383;SDS011;63511;49.346;8.798;2023-02-18T06:05:12;10.45;;;6.05;;
61383;SDS011;63511;49.346;8.798;2023-02-18T06:07:39;13.75;;;6.40;;
61383;SDS011;63511;49.346;8.798;2023-02-18T06:10:06;11.57;;;6.43;;
61383;SDS011;63511;49.346;8.798;2023-02-18T06:12:34;9.95;;;5.82;;
61383;SDS011;63511;49.346;8.798;2023-02-18T06:15:01;9.75;;;5.88;;
61383;SDS011;63511;49.346;8.798;2023-02-18T06:17:27;9.13;;;6.10;;
61383;SDS011;63511;49.346;8.798;2023-02-18T06:19:54;10.68;;;6.68;;
61383;SDS011;63511;49.346;8.798;2023-02-18T06:22:20;8.40;;;5.53;;
61383;SDS011;63511;49.346;8.798;2023-02-18T06:24:47;9.10;;;6.40;;
61383;SDS011;63511;49.346;8.798;2023-02-18T06:27:13;10.55;;;6.05;;
61383;SDS011;63511;49.346;8.798;2023-02-18T06:29:41;7.55;;;6.05;;
61383;SDS011;63511;49.346;8.798;2023-02-18T06:32:08;10.93;;;6.78;;
61383;SDS011;63511;49.346;8.798;2023-02-18T06:34:34;9.75;;;5.93;;
61383;SDS011;63511;49.346;8.798;2023-02-18T06:37:01;8.20;;;5.88;;
61383;SDS011;63511;49.346;8.798;2023-02-18T06:39:27;8.38;;;6.18;;
61383;SDS011;63511;49.346;8.798;2023-02-18T06:41:54;9.27;;;6.22;;
61383;SDS011;63511;49.346;8.798;2023-02-18T06:44:20;9.32;;;6.15;;
61383;SDS011;63511;49.346;8.798;2023-02-18T06:46:48;8.98;;;6.38;;
61383;SDS011;63511;49.346;8.798;2023-02-18T06:49:15;8.73;;;6.47;;
61383;SDS011;63511;49.346;8.798;2023-02-18T06:51:41;9.35;;;6.25;;
61383;SDS011;63511;49.346;8.798;2023-02-18T06:54:08;8.38;;;5.82;;
61383;SDS011;63511;49.346;8.798;2023-02-18T06:56:34;9.00;;;6.57;;
61383;SDS011;63511;49.346;8.798;2023-02-18T06:59:01;10.38;;;6.25;;
61383;SDS011;63511;49.346;8.798;2023-02-18T07:01:27;8.63;;;6.20;;
61383;SDS011;63511;49.346;8.798;2023-02-18T07:03:55;11.02;;;6.63;;
61383;SDS011;63511;49.346;8.798;2023-02-18T07:06:22;7.78;;;5.55;;
61383;SDS011;63511;49.346;8.798;2023-02-18T07:08:48;10.48;;;6.63;;
61383;SDS011;63511;49.346;8.798;2023-02-18T07:11:15;8.55;;;6.25;;
61383;SDS011;63511;49.346;8.798;2023-02-18T07:13:41;8.57;;;6.30;;
61383;SDS011;63511;49.346;8.798;2023-02-18T07:16:08;6.85;;;5.32;;
61383;SDS011;63511;49.346;8.798;2023-02-18T07:18:34;6.88;;;5.70;;
61383;SDS011;63511;49.346;8.798;2023-02-18T07:21:02;7.88;;;5.40;;
61383;SDS011;63511;49.346;8.798;2023-02-18T07:23:29;6.90;;;5.57;;
61383;SDS011;63511;49.346;8.798;2023-02-18T07:26:01;7.13;;;5.32;;
61383;SDS011;63511;49.346;8.798;2023-02-18T07:28:29;7.97;;;5.50;;
61383;SDS011;63511;49.346;8.798;2023-02-18T07:30:55;6.32;;;5.13;;
61383;SDS011;63511;49.346;8.798;2023-02-18T07:33:22;9.73;;;5.18;;
61383;SDS011;63511;49.346;8.798;2023-02-18T07:35:51;6.47;;;5.07;;
61383;SDS011;63511;49.346;8.798;2023-02-18T07:38:20;10.25;;;4.75;;
61383;SDS011;63511;49.346;8.798;2023-02-18T07:40:46;8.10;;;5.18;;
61383;SDS011;63511;49.346;8.798;2023-02-18T07:43:13;9.15;;;5.05;;
61383;SDS011;63511;49.346;8.798;2023-02-18T07:45:39;6.63;;;5.70;;
61383;SDS011;63511;49.346;8.798;2023-02-18T07:48:06;8.60;;;5.20;;
61383;SDS011;63511;49.346;8.798;2023-02-18T07:50:32;6.40;;;4.75;;
61383;SDS011;63511;49.346;8.798;2023-02-18T07:53:01;6.40;;;5.03;;
61383;SDS011;63511;49.346;8.798;2023-02-18T07:55:29;6.30;;;4.43;;
61383;SDS011;63511;49.346;8.798;2023-02-18T07:58:10;7.72;;;4.93;;
61383;SDS011;63511;49.346;8.798;2023-02-18T08:00:36;5.30;;;4.63;;
61383;SDS011;63511;49.346;8.798;2023-02-18T08:03:03;6.35;;;4.55;;
61383;SDS011;63511;49.346;8.798;2023-02-18T08:05:29;7.13;;;4.72;;
61383;SDS011;63511;49.346;8.798;2023-02-18T08:07:56;5.53;;;4.18;;
61383;SDS011;63511;49.346;8.798;2023-02-18T08:10:23;7.18;;;4.68;;
61383;SDS011;63511;49.346;8.798;2023-02-18T08:12:51;5.93;;;4.38;;
61383;SDS011;63511;49.346;8.798;2023-02-18T08:15:17;7.05;;;4.60;;
61383;SDS011;63511;49.346;8.798;2023-02-18T08:17:44;5.47;;;4.53;;
61383;SDS011;63511;49.346;8.798;2023-02-18T08:20:10;6.72;;;4.07;;
61383;SDS011;63511;49.346;8.798;2023-02-18T08:22:37;6.68;;;4.80;;
61383;SDS011;63511;49.346;8.798;2023-02-18T08:25:04;5.53;;;4.40;;
61383;SDS011;63511;49.346;8.798;2023-02-18T08:27:31;5.05;;;3.90;;
61383;SDS011;63511;49.346;8.798;2023-02-18T08:29:59;6.63;;;4.60;;
61383;SDS011;63511;49.346;8.798;2023-02-18T08:32:26;7.45;;;4.32;;
61383;SDS011;63511;49.346;8.798;2023-02-18T08:34:52;5.32;;;4.40;;
61383;SDS011;63511;49.346;8.798;2023-02-18T08:37:19;4.75;;;3.85;;
61383;SDS011;63511;49.346;8.798;2023-02-18T08:39:45;5.68;;;3.67;;
61383;SDS011;63511;49.346;8.798;2023-02-18T08:42:12;4.85;;;4.05;;
61383;SDS011;63511;49.346;8.798;2023-02-18T08:44:38;5.65;;;4.28;;
61383;SDS011;63511;49.346;8.798;2023-02-18T08:47:06;7.75;;;3.53;;
61383;SDS011;63511;49.346;8.798;2023-02-18T08:49:33;6.97;;;4.05;;
61383;SDS011;63511;49.346;8.798;2023-02-18T08:52:01;4.47;;;3.63;;
61383;SDS011;63511;49.346;8.798;2023-02-18T08:54:27;7.40;;;4.05;;
61383;SDS011;63511;49.346;8.798;2023-02-18T08:56:54;8.20;;;4.72;;
61383;SDS011;63511;49.346;8.798;2023-02-18T08:59:21;4.35;;;3.40;;
61383;SDS011;63511;49.346;8.798;2023-02-18T09:01:48;4.60;;;3.78;;
61383;SDS011;63511;49.346;8.798;2023-02-18T09:04:16;7.07;;;4.20;;
61383;SDS011;63511;49.346;8.798;2023-02-18T09:06:45;5.05;;;4.15;;
61383;SDS011;63511;49.346;8.798;2023-02-18T09:09:12;4.82;;;4.10;;
61383;SDS011;63511;49.346;8.798;2023-02-18T09:11:39;6.53;;;4.22;;
61383;SDS011;63511;49.346;8.798;2023-02-18T09:14:05;6.32;;;4.25;;
61383;SDS011;63511;49.346;8.798;2023-02-18T09:16:32;6.78;;;4.40;;
61383;SDS011;63511;49.346;8.798;2023-02-18T09:18:58;4.70;;;4.10;;
61383;SDS011;63511;49.346;8.798;2023-02-18T09:21:26;5.18;;;4.15;;
61383;SDS011;63511;49.346;8.798;2023-02-18T09:23:53;5.45;;;4.40;;
61383;SDS011;63511;49.346;8.798;2023-02-18T09:26:21;6.85;;;4.80;;
61383;SDS011;63511;49.346;8.798;2023-02-18T09:28:49;8.23;;;4.38;;
61383;SDS011;63511;49.346;8.798;2023-02-18T09:31:17;6.00;;;4.70;;
61383;SDS011;63511;49.346;8.798;2023-02-18T09:33:45;6.35;;;4.57;;
61383;SDS011;63511;49.346;8.798;2023-02-18T09:36:14;6.60;;;4.93;;
61383;SDS011;63511;49.346;8.798;2023-02-18T09:38:43;8.70;;;4.57;;
61383;SDS011;63511;49.346;8.798;2023-02-18T09:41:13;9.73;;;4.57;;
61383;SDS011;63511;49.346;8.798;2023-02-18T09:43:47;6.50;;;4.68;;
61383;SDS011;63511;49.346;8.798;2023-02-18T09:46:17;11.40;;;4.63;;
61383;SDS011;63511;49.346;8.798;2023-02-18T09:48:47;7.30;;;4.85;;
61383;SDS011;63511;49.346;8.798;2023-02-18T09:51:14;6.13;;;4.32;;
61383;SDS011;63511;49.346;8.798;2023-02-18T09:53:43;10.35;;;4.60;;
61383;SDS011;63511;49.346;8.798;2023-02-18T09:56:11;6.88;;;4.95;;
61383;SDS011;63511;49.346;8.798;2023-02-18T09:58:39;6.00;;;4.32;;
61383;SDS011;63511;49.346;8.798;2023-02-18T10:01:10;5.97;;;4.40;;
61383;SDS011;63511;49.346;8.798;2023-02-18T10:03:45;5.88;;;4.35;;
61383;SDS011;63511;49.346;8.798;2023-02-18T10:06:15;5.43;;;3.97;;
61383;SDS011;63511;49.346;8.798;2023-02-18T10:08:46;6.53;;;4.60;;
61383;SDS011;63511;49.346;8.798;2023-02-18T10:11:17;7.03;;;4.85;;
61383;SDS011;63511;49.346;8.798;2023-02-18T10:13:48;6.07;;;4.15;;
61383;SDS011;63511;49.346;8.798;2023-02-18T10:16:17;6.22;;;4.68;;
61383;SDS011;63511;49.346;8.798;2023-02-18T10:18:47;6.75;;;5.00;;
61383;SDS011;63511;49.346;8.798;2023-02-18T10:21:16;5.68;;;4.25;;
61383;SDS011;63511;49.346;8.798;2023-02-18T10:23:49;7.88;;;4.70;;
61383;SDS011;63511;49.346;8.798;2023-02-18T10:26:23;4.88;;;3.90;;
61383;SDS011;63511;49.346;8.798;2023-02-18T10:28:49;5.78;;;4.43;;
61383;SDS011;63511;49.346;8.798;2023-02-18T10:31:17;6.85;;;4.13;;
61383;SDS011;63511;49.346;8.798;2023-02-18T10:33:50;7.60;;;3.83;;
61383;SDS011;63511;49.346;8.798;2023-02-18T10:36:24;11.27;;;3.80;;
61383;SDS011;63511;49.346;8.798;2023-02-18T10:41:47;5.85;;;4.00;;
61383;SDS011;63511;49.346;8.798;2023-02-18T10:44:25;7.80;;;4.78;;
61383;SDS011;63511;49.346;8.798;2023-02-18T10:47:03;5.57;;;4.18;;
61383;SDS011;63511;49.346;8.798;2023-02-18T10:49:47;6.03;;;4.30;;
61383;SDS011;63511;49.346;8.798;2023-02-18T10:52:21;6.32;;;3.88;;
61383;SDS011;63511;49.346;8.798;2023-02-18T10:54:52;9.63;;;3.58;;
61383;SDS011;63511;49.346;8.798;2023-02-18T10:57:24;7.90;;;3.65;;
61383;SDS011;63511;49.346;8.798;2023-02-18T10:59:55;5.78;;;4.10;;
61383;SDS011;63511;49.346;8.798;2023-02-18T11:02:25;6.60;;;3.85;;
61383;SDS011;63511;49.346;8.798;2023-02-18T11:04:54;8.40;;;3.78;;
61383;SDS011;63511;49.346;8.798;2023-02-18T11:07:24;4.25;;;3.53;;
61383;SDS011;63511;49.346;8.798;2023-02-18T11:09:56;5.82;;;3.75;;
61383;SDS011;63511;49.346;8.798;2023-02-18T11:12:25;5.93;;;3.55;;
61383;SDS011;63511;49.346;8.798;2023-02-18T11:15:04;5.95;;;3.60;;
61383;SDS011;63511;49.346;8.798;2023-02-18T11:17:42;4.63;;;2.83;;
61383;SDS011;63511;49.346;8.798;2023-02-18T11:20:19;3.67;;;2.72;;
61383;SDS011;63511;49.346;8.798;2023-02-18T11:22:49;3.13;;;2.80;;
61383;SDS011;63511;49.346;8.798;2023-02-18T11:25:19;3.72;;;2.78;;
61383;SDS011;63511;49.346;8.798;2023-02-18T11:27:47;4.78;;;3.42;;
61383;SDS011;63511;49.346;8.798;2023-02-18T11:30:18;4.28;;;3.20;;
61383;SDS011;63511;49.346;8.798;2023-02-18T11:32:46;3.85;;;2.97;;
61383;SDS011;63511;49.346;8.798;2023-02-18T11:35:16;4.45;;;3.67;;
61383;SDS011;63511;49.346;8.798;2023-02-18T11:37:45;5.47;;;4.00;;
61383;SDS011;63511;49.346;8.798;2023-02-18T11:40:19;6.05;;;3.55;;
61383;SDS011;63511;49.346;8.798;2023-02-18T11:42:48;3.95;;;3.17;;
61383;SDS011;63511;49.346;8.798;2023-02-18T11:45:25;4.35;;;3.22;;
61383;SDS011;63511;49.346;8.798;2023-02-18T11:47:57;6.45;;;3.20;;
61383;SDS011;63511;49.346;8.798;2023-02-18T11:50:24;5.22;;;4.00;;
61383;SDS011;63511;49.346;8.798;2023-02-18T11:52:51;6.03;;;4.72;;
61383;SDS011;63511;49.346;8.798;2023-02-18T11:55:20;7.40;;;5.38;;
61383;SDS011;63511;49.346;8.798;2023-02-18T11:57:49;8.93;;;6.85;;
61383;SDS011;63511;49.346;8.798;2023-02-18T12:00:22;8.80;;;6.90;;
61383;SDS011;63511;49.346;8.798;2023-02-18T12:02:50;12.43;;;7.65;;
61383;SDS011;63511;49.346;8.798;2023-02-18T12:05:21;11.65;;;8.73;;
61383;SDS011;63511;49.346;8.798;2023-02-18T12:07:50;8.57;;;6.45;;
61383;SDS011;63511;49.346;8.798;2023-02-18T12:12:53;10.95;;;6.78;;
61383;SDS011;63511;49.346;8.798;2023-02-18T12:15:28;12.60;;;7.78;;
61383;SDS011;63511;49.346;8.798;2023-02-18T12:18:26;8.90;;;6.72;;
61383;SDS011;63511;49.346;8.798;2023-02-18T12:21:14;9.60;;;6.38;;
61383;SDS011;63511;49.346;8.798;2023-02-18T12:23:50;9.77;;;6.95;;
61383;SDS011;63511;49.346;8.798;2023-02-18T12:26:27;9.95;;;7.15;;
61383;SDS011;63511;49.346;8.798;2023-02-18T12:29:04;9.38;;;6.88;;
61383;SDS011;63511;49.346;8.798;2023-02-18T12:31:48;10.40;;;6.47;;
61383;SDS011;63511;49.346;8.798;2023-02-18T12:34:25;7.60;;;5.90;;
61383;SDS011;63511;49.346;8.798;2023-02-18T12:37:07;9.35;;;6.82;;
61383;SDS011;63511;49.346;8.798;2023-02-18T12:39:54;8.50;;;6.43;;
61383;SDS011;63511;49.346;8.798;2023-02-18T12:42:35;10.93;;;5.75;;
61383;SDS011;63511;49.346;8.798;2023-02-18T12:45:17;8.68;;;5.90;;
61383;SDS011;63511;49.346;8.798;2023-02-18T12:48:04;6.78;;;4.70;;
61383;SDS011;63511;49.346;8.798;2023-02-18T12:50:47;7.13;;;5.05;;
61383;SDS011;63511;49.346;8.798;2023-02-18T12:53:39;7.65;;;5.57;;
61383;SDS011;63511;49.346;8.798;2023-02-18T12:56:24;6.47;;;5.47;;
61383;SDS011;63511;49.346;8.798;2023-02-18T12:59:15;9.23;;;5.43;;
61383;SDS011;63511;49.346;8.798;2023-02-18T13:02:00;7.35;;;5.45;;
61383;SDS011;63511;49.346;8.798;2023-02-18T13:04:39;6.70;;;4.13;;
61383;SDS011;63511;49.346;8.798;2023-02-18T13:10:20;7.07;;;4.63;;
61383;SDS011;63511;49.346;8.798;2023-02-18T13:13:10;6.57;;;5.03;;
61383;SDS011;63511;49.346;8.798;2023-02-18T13:15:43;5.70;;;4.68;;
61383;SDS011;63511;49.346;8.798;2023-02-18T13:18:17;9.32;;;5.03;;
61383;SDS011;63511;49.346;8.798;2023-02-18T13:20:48;6.97;;;5.20;;
61383;SDS011;63511;49.346;8.798;2023-02-18T13:23:18;8.63;;;4.40;;
61383;SDS011;63511;49.346;8.798;2023-02-18T13:25:48;6.38;;;4.75;;
61383;SDS011;63511;49.346;8.798;2023-02-18T13:28:21;6.15;;;4.38;;
61383;SDS011;63511;49.346;8.798;2023-02-18T13:30:59;7.75;;;5.22;;
61383;SDS011;63511;49.346;8.798;2023-02-18T13:33:35;7.40;;;5.00;;
61383;SDS011;63511;49.346;8.798;2023-02-18T13:36:11;6.95;;;5.05;;
61383;SDS011;63511;49.346;8.798;2023-02-18T13:38:56;6.13;;;5.00;;
61383;SDS011;63511;49.346;8.798;2023-02-18T13:41:28;7.30;;;4.70;;
61383;SDS011;63511;49.346;8.798;2023-02-18T13:43:59;8.55;;;5.15;;
61383;SDS011;63511;49.346;8.798;2023-02-18T13:46:27;6.75;;;5.00;;
61383;SDS011;63511;49.346;8.798;2023-02-18T13:49:03;7.40;;;4.78;;
61383;SDS011;63511;49.346;8.798;2023-02-18T13:51:32;5.82;;;4.22;;
61383;SDS011;63511;49.346;8.798;2023-02-18T13:54:09;5.40;;;4.28;;
61383;SDS011;63511;49.346;8.798;2023-02-18T13:56:42;8.02;;;5.90;;
61383;SDS011;63511;49.346;8.798;2023-02-18T13:59:16;8.00;;;4.80;;
61383;SDS011;63511;49.346;8.798;2023-02-18T14:01:47;7.55;;;4.20;;
61383;SDS011;63511;49.346;8.798;2023-02-18T14:04:47;8.38;;;4.47;;
61383;SDS011;63511;49.346;8.798;2023-02-18T14:07:22;5.28;;;3.35;;
61383;SDS011;63511;49.346;8.798;2023-02-18T14:09:53;5.05;;;4.05;;
61383;SDS011;63511;49.346;8.798;2023-02-18T14:12:25;6.10;;;3.85;;
61383;SDS011;63511;49.346;8.798;2023-02-18T14:15:02;6.68;;;4.97;;
61383;SDS011;63511;49.346;8.798;2023-02-18T14:18:23;6.53;;;4.57;;
61383;SDS011;63511;49.346;8.798;2023-02-18T14:20:55;7.45;;;4.47;;
61383;SDS011;63511;49.346;8.798;2023-02-18T14:23:41;6.45;;;5.07;;
61383;SDS011;63511;49.346;8.798;2023-02-18T14:26:16;12.63;;;5.57;;
61383;SDS011;63511;49.346;8.798;2023-02-18T14:28:52;11.93;;;5.60;;
61383;SDS011;63511;49.346;8.798;2023-02-18T14:31:27;10.15;;;5.57;;
61383;SDS011;63511;49.346;8.798;2023-02-18T14:40:24;7.07;;;5.50;;
61383;SDS011;63511;49.346;8.798;2023-02-18T14:43:07;9.45;;;5.35;;
61383;SDS011;63511;49.346;8.798;2023-02-18T14:45:52;12.50;;;4.85;;
61383;SDS011;63511;49.346;8.798;2023-02-18T14:48:37;11.93;;;6.22;;
61383;SDS011;63511;49.346;8.798;2023-02-18T14:51:14;6.38;;;4.75;;
61383;SDS011;63511;49.346;8.798;2023-02-18T14:53:42;6.70;;;5.30;;
61383;SDS011;63511;49.346;8.798;2023-02-18T14:56:13;8.32;;;5.47;;
61383;SDS011;63511;49.346;8.798;2023-02-18T14:58:42;8.55;;;5.15;;
61383;SDS011;63511;49.346;8.798;2023-02-18T15:01:16;8.52;;;5.10;;
61383;SDS011;63511;49.346;8.798;2023-02-18T15:03:45;6.32;;;5.05;;
61383;SDS011;63511;49.346;8.798;2023-02-18T15:06:21;6.68;;;5.20;;
61383;SDS011;63511;49.346;8.798;2023-02-18T15:08:50;11.23;;;5.55;;
61383;SDS011;63511;49.346;8.798;2023-02-18T15:11:18;8.52;;;5.30;;
61383;SDS011;63511;49.346;8.798;2023-02-18T15:13:47;7.32;;;5.03;;
61383;SDS011;63511;49.346;8.798;2023-02-18T15:16:17;7.38;;;5.20;;
61383;SDS011;63511;49.346;8.798;2023-02-18T15:18:47;7.53;;;5.53;;
61383;SDS011;63511;49.346;8.798;2023-02-18T15:21:18;7.30;;;4.45;;
61383;SDS011;63511;49.346;8.798;2023-02-18T15:23:49;7.97;;;4.50;;